map of MVF home
Great Circle Mapper logo
MVF - Airport
Location
City:  Mossoró, Rio Grande do Norte, Brazil
Near (Alt.):Moçoró
Name:Dix Sept Rosado
ICAO / IATA:SBMS / MVF

Details
Type:Airport (Aerodrome, Airfield)
Latitude:5°12'07"S (-5.201918)
Longitude:37°21'52"W (-37.364346)
Datum:WGS 1984
Elevation:77 ft (23 m)
Runways:1
Longest:6562 × 98 ft (2000 × 30 m), paved

Time
Time Zone:UTC-3
Local Time:

Weather
METAR:SBMS 221700Z 01013KT 9999 FEW030 36/22 Q1009

Related Locations
Nearby:
Farthest:ULI: 12051 mi / 19394 km
Falalop Island, Ulithi Atoll, YAP, FM

Find:

   beyond  
but within

Other Information
Maps:
NOTAMs:
Links:
Sources:

  
flag of Brazil
flag of Rio Grande do Norte
  

Sectional Chart

Flight Planning
at skyvector.com

Satellite Image

Google Maps Satellite View

 

Copyright © 2004-2014 Karl L. Swartz. All rights reserved.
The Great Circle Mapper name and logo are trademarks of the Great Circle Mapper.
All other trademarks mentioned herein belong to their respective owners.
Please see credits for attibutions and further copyright information.

  Follow gcmap on Facebook Follow gcmap on Twitter

hCard Microformat

Geo Microformat